Hovedside
METAR-TAF:

METAR-TAF

Lufthavner :

Hammerfest lufthavn

Hammerfest, Norge

breddegrad: 70-40N, lengdegrad: 023-40E, høyde over havet: 8 m

Gjeldene værobservasjon

Denne rapporten ble laget for 14 minutter siden, klokken 17:20 UTC
Vind 15 kt fra Vest-sørvest
Temperatur 5°C
Luftfuktighet 75%
Trykk 1022 hPa
Sikt 10 km eller mer

METAR: ENHF 261720Z AUTO 25015KT 9999 OVC025/// 05/01 Q1022 RESHUP REDZ RMK WIND 1254FT 29037KT

Tid: 19:34 (17:34 UTC)


TAF: fraværende

Værobservasjoner og værvarsel for over 4000 flyplasser (METAR- og TAF-rapporter).

Tilgjengelige stasjoner er representert av de røde og gule prikkene på kartet.

Hold musepekeren over prikken for å se navnet på stasjonen.

Klikk så for å se værobservasjoner og -varsler.

For å forandre kartet kan du klikke på den grønne knappen med svart kryss for å zoome inn, på den grønne knappen med strek for å zoome ut, eller på de grønne pilene for å se tilstøtende kart.


METAR-TAF: